Flight Track Log - Related Links

Times and Time Zones

All times are in EDT time to prevent confusion due to time zone crossing. See the SWA1729 flight status page for this flight to view local times or setup timezone preferences in your user account.

Time Position Orientation Groundspeed Altitude Reporting Facility
EDT Latitude Longitude Course Direction KTS MPH feet Rate Location/Type
Mon 07:26:54 PM 36.1000 -86.6833 258° West 164 189 1,300  Level Nashville TRACON
Mon 07:28:12 PM 36.0833 -86.7833 258° West 243 280 3,600 1,227 Climbing Nashville TRACON
Mon 07:29:06 PM 36.0833 -86.8500 270° West 262 302 4,000 1,840 Climbing Nashville TRACON
Mon 07:30:42 PM 36.0878 -86.9922 272° West 273 314 8,200 2,346 Climbing Memphis Center
Mon 07:31:42 PM 36.0922 -87.0744 274° West 267 307 10,100 1,750 Climbing Memphis Center
Mon 07:32:42 PM 36.0969 -87.1819 273° West 292 336 11,700 2,400 Climbing Memphis Center
Mon 07:33:42 PM 36.0853 -87.2931 263° West 321 369 14,900 2,850 Climbing Memphis Center
Mon 07:34:42 PM 36.0628 -87.3992 255° West 326 375 17,400 2,150 Climbing Memphis Center
Mon 07:35:42 PM 36.0406 -87.5128 256° West 331 381 19,200 1,350 Climbing Memphis Center
Mon 07:36:42 PM 36.0142 -87.6419 256° West 352 405 20,100 1,350 Climbing Memphis Center
Mon 07:37:42 PM 35.9878 -87.7711 256° West 375 432 21,900 1,700 Climbing Memphis Center
Mon 07:38:42 PM 35.9631 -87.8975 256° West 381 438 23,500 1,450 Climbing Memphis Center
Mon 07:39:42 PM 35.9028 -88.0122 237° Southwest 386 444 24,800 1,350 Climbing Memphis Center
Mon 07:40:42 PM 35.8256 -88.1142 227° Southwest 397 457 26,200 1,400 Climbing Memphis Center
Mon 07:41:42 PM 35.7581 -88.2006 226° Southwest 403 464 27,600 1,450 Climbing Memphis Center
Mon 07:42:42 PM 35.6806 -88.2997 226° Southwest 403 464 29,100 1,400 Climbing Memphis Center
Mon 07:43:42 PM 35.6050 -88.3986 227° Southwest 403 464 30,400 1,150 Climbing Memphis Center
Mon 07:44:42 PM 35.5358 -88.4997 230° Southwest 403 464 31,400 1,300 Climbing Memphis Center
Mon 07:45:42 PM 35.4894 -88.6206 245° Southwest 403 464 33,000 1,300 Climbing Memphis Center
Mon 07:46:42 PM 35.4453 -88.7361 245° Southwest 392 451 34,000 500 Climbing Memphis Center
Mon 07:47:42 PM 35.3858 -88.8342 233° Southwest 371 427 34,000  Level Memphis Center
Mon 07:48:42 PM 35.3100 -88.9347 227° Southwest 371 427 34,000  Level Memphis Center
Mon 07:49:42 PM 35.2358 -89.0225 224° Southwest 371 427 34,000  Level Memphis Center
Mon 07:50:42 PM 35.1617 -89.1150 226° Southwest 381 438 34,000  Level Memphis Center
Mon 07:51:42 PM 35.0917 -89.2050 226° Southwest 376 433 34,000  Level Memphis Center
Mon 07:52:42 PM 35.0194 -89.2922 225° Southwest 376 433 34,000  Level Memphis Center
Mon 07:53:42 PM 34.9492 -89.3792 225° Southwest 376 433 34,000  Level Memphis Center
Mon 07:54:42 PM 34.8747 -89.4686 225° Southwest 376 433 34,000  Level Memphis Center
Mon 07:55:42 PM 34.8106 -89.5478 225° Southwest 376 433 34,000  Level Memphis Center
Mon 07:56:42 PM 34.7339 -89.6394 225° Southwest 376 433 34,000  Level Memphis Center
Mon 07:57:42 PM 34.6614 -89.7308 226° Southwest 381 438 34,000  Level Memphis Center
Mon 07:58:42 PM 34.5847 -89.8300 227° Southwest 381 438 34,000  Level Memphis Center
Mon 07:59:42 PM 34.5161 -89.9186 227° Southwest 375 432 34,000  Level Memphis Center
Mon 08:00:42 PM 34.4436 -90.0044 224° Southwest 375 432 34,000  Level Memphis Center
Mon 08:01:42 PM 34.3706 -90.0956 226° Southwest 375 432 34,000  Level Memphis Center
Mon 08:02:42 PM 34.3000 -90.1811 225° Southwest 369 425 34,000  Level Memphis Center
Mon 08:03:42 PM 34.2269 -90.2692 225° Southwest 369 425 34,000  Level Memphis Center
Mon 08:04:42 PM 34.1519 -90.3597 225° Southwest 380 437 34,000  Level Memphis Center
Mon 08:05:42 PM 34.0789 -90.4475 225° Southwest 380 437 34,000  Level Memphis Center
Mon 08:06:42 PM 34.0139 -90.5300 226° Southwest 385 443 34,000  Level Memphis Center
Mon 08:07:42 PM 33.9367 -90.6200 224° Southwest 379 436 34,000  Level Memphis Center
Mon 08:08:42 PM 33.8614 -90.7100 225° Southwest 384 442 34,000  Level Memphis Center
Mon 08:09:42 PM 33.7775 -90.8069 224° Southwest 384 442 34,000  Level Memphis Center
Mon 08:10:42 PM 33.7061 -90.8967 226° Southwest 378 435 34,000  Level Memphis Center
Mon 08:11:42 PM 33.6286 -90.9883 225° Southwest 383 441 34,000  Level Memphis Center
Mon 08:12:42 PM 33.5550 -91.0750 224° Southwest 383 441 34,000  Level Memphis Center
Mon 08:13:42 PM 33.4878 -91.1542 224° Southwest 387 445 34,000  Level Memphis Center
Mon 08:15:27 PM 33.3514 -91.3214 226° Southwest 387 445 34,000  Level Fort Worth Center
Mon 08:16:27 PM 33.2742 -91.4061 223° Southwest 387 445 34,000  Level Fort Worth Center
Mon 08:17:27 PM 33.2089 -91.4825 224° Southwest 387 445 34,000  Level Fort Worth Center
Mon 08:18:27 PM 33.1219 -91.5850 225° Southwest 388 447 34,000  Level Fort Worth Center
Mon 08:19:27 PM 33.0467 -91.6742 225° Southwest 388 447 34,000  Level Fort Worth Center
Mon 08:20:27 PM 32.9692 -91.7608 223° Southwest 388 447 34,000 50 Level Fort Worth Center
Mon 08:21:27 PM 32.9036 -91.8342 223° Southwest 383 441 34,100 900 Climbing Fort Worth Center
Mon 08:22:27 PM 32.8322 -91.9178 225° Southwest 378 435 35,800 950 Climbing Fort Worth Center
Mon 08:23:27 PM 32.7647 -91.9986 225° Southwest 368 423 36,000 100 Climbing Fort Worth Center
Mon 08:24:27 PM 32.6872 -92.0847 223° Southwest 368 423 36,000  Level Fort Worth Center
Mon 08:25:27 PM 32.6056 -92.1806 225° Southwest 368 423 36,000  Level Fort Worth Center
Mon 08:26:27 PM 32.5317 -92.2639 224° Southwest 374 430 36,000  Level Fort Worth Center
Mon 08:28:45 PM 32.3714 -92.4444 224° Southwest 375 432 36,000  Level Houston Center
Mon 08:29:47 PM 32.2814 -92.5478 224° Southwest 377 434 36,000  Level Houston Center
Mon 08:30:49 PM 32.2058 -92.6328 224° Southwest 377 434 36,000  Level Houston Center
Mon 08:31:51 PM 32.1306 -92.7189 224° Southwest 378 435 36,000  Level Houston Center
Mon 08:32:52 PM 32.0544 -92.8036 223° Southwest 379 436 36,000  Level Houston Center
Mon 08:33:54 PM 31.9792 -92.8889 224° Southwest 378 435 36,000  Level Houston Center
Mon 08:34:56 PM 31.9031 -92.9739 223° Southwest 378 435 36,000  Level Houston Center
Mon 08:35:58 PM 31.8114 -93.0769 224° Southwest 379 436 36,000  Level Houston Center
Mon 08:37:00 PM 31.7347 -93.1622 223° Southwest 380 437 36,000  Level Houston Center
Mon 08:38:02 PM 31.6592 -93.2469 224° Southwest 377 434 36,000  Level Houston Center
Mon 08:39:04 PM 31.5822 -93.3317 223° Southwest 377 434 36,000  Level Houston Center
Mon 08:40:06 PM 31.5067 -93.4161 224° Southwest 377 434 36,000 -242 Level Houston Center
Mon 08:41:08 PM 31.4128 -93.5178 223° Southwest 381 438 35,500 -774 Descending Houston Center
Mon 08:42:10 PM 31.3369 -93.5994 223° Southwest 381 438 34,400 -1,210 Descending Houston Center
Mon 08:43:12 PM 31.2597 -93.6853 224° Southwest 382 440 33,000 -1,306 Descending Houston Center
Mon 08:44:14 PM 31.1811 -93.7719 223° Southwest 386 444 31,700 -1,210 Descending Houston Center
Mon 08:45:16 PM 31.1019 -93.8561 222° Southwest 384 442 30,500 -1,403 Descending Houston Center
Mon 08:46:18 PM 31.0233 -93.9433 224° Southwest 386 444 28,800 -1,694 Descending Houston Center
Mon 08:47:20 PM 30.9258 -94.0486 223° Southwest 394 453 27,000 -1,403 Descending Houston Center
Mon 08:48:22 PM 30.8469 -94.1361 224° Southwest 390 449 25,900 -1,016 Descending Houston Center
Mon 08:49:24 PM 30.7683 -94.2194 222° Southwest 382 440 24,900 -976 Descending Houston Center
Mon 08:50:25 PM 30.6931 -94.3008 223° Southwest 369 425 23,900 -976 Descending Houston Center
Mon 08:51:27 PM 30.6211 -94.3814 224° Southwest 359 413 22,900 -1,043 Descending Houston Center
Mon 08:51:57 PM 30.5786 -94.4286 224° Southwest 353 406 22,300 -1,161 Descending Houston Center
Mon 08:52:29 PM 30.5481 -94.4581 220° Southwest 353 406 21,700 -1,869 Descending Houston Center
Mon 08:52:58 PM 30.5044 -94.5061 224° Southwest 348 400 20,400 -2,032 Descending Houston Center
Mon 08:53:31 PM 30.4808 -94.5364 228° Southwest 343 395 19,600 -2,143 Descending Houston Center
Mon 08:53:54 PM 30.4511 -94.5858 235° Southwest 337 388 18,400 -2,129 Descending Houston Center
Mon 08:54:33 PM 30.4258 -94.6247 233° Southwest 335 386 17,400 -2,066 Descending Houston Center
Mon 08:54:55 PM 30.3964 -94.6706 233° Southwest 326 375 16,300 -1,967 Descending Houston Center
Mon 08:55:34 PM 30.3731 -94.7089 235° Southwest 327 376 15,400 -2,066 Descending Houston Center
Mon 08:55:56 PM 30.3414 -94.7550 231° Southwest 316 364 14,200 -2,323 Descending Houston Center
Mon 08:56:36 PM 30.3108 -94.8056 235° Southwest 316 364 13,000 -1,075 Descending Houston Center
Mon 08:57:03 PM 30.2828 -94.8447 230° Southwest 314 361 13,000 -194 Level Houston Center
Mon 08:57:38 PM 30.2578 -94.8864 235° Southwest 316 364 12,800 -643 Descending Houston Center
Mon 08:57:59 PM 30.2353 -94.9211 233° Southwest 321 369 12,400 -871 Descending Houston Center
Mon 08:58:40 PM 30.2028 -94.9700 232° Southwest 324 373 11,900 -985 Descending Houston Center
Mon 08:59:06 PM 30.1747 -95.0133 233° Southwest 328 377 11,300 -984 Descending Houston Center
Mon 08:59:41 PM 30.1483 -95.0544 233° Southwest 328 377 10,900 -873 Descending Houston Center
Mon 09:00:01 PM 30.1139 -95.0811 214° Southwest 334 384 10,500 -871 Descending Houston Center
Mon 09:00:43 PM 30.0658 -95.1006 199° South 337 388 10,000 -492 Descending Houston Center
Mon 09:01:02 PM 30.0292 -95.1183 203° Southwest 324 373 10,000  Level Houston Center
Mon 09:02:03 PM 29.9483 -95.1522 200° South 298 343 10,000 -231 Level Houston Center
Mon 09:02:46 PM 29.9081 -95.1694 200° South 299 344 9,600 -1,180 Descending Houston Center
Mon 09:03:04 PM 29.8694 -95.1861 201° Southwest 276 318 8,800 -1,839 Descending Houston Center
Mon 09:03:48 PM 29.8219 -95.2058 200° South 277 319 7,700 -1,672 Descending Houston Center
Mon 09:04:05 PM 29.7989 -95.2164 202° Southwest 272 313 7,100 -1,742 Descending Houston Center
Mon 09:04:50 PM 29.7819 -95.2669 249° West 285 328 5,900 -1,770 Descending Houston Center
Mon 09:05:06 PM 29.7831 -95.2953 273° West 277 319 5,300 -1,574 Descending Houston Center
Mon 09:05:51 PM 29.7906 -95.3511 279° West 270 311 4,300 -1,258 Descending Houston Center
Mon 09:06:08 PM 29.7928 -95.3783 275° West 239 275 4,000 -1,355 Descending Houston Center
Mon 09:06:53 PM 29.7667 -95.3992 215° Southwest 225 259 2,900 -1,672 Descending Houston Center
Mon 09:07:09 PM 29.7478 -95.3933 165° South 186 214 2,300 -885 Descending Houston Center
Mon 09:07:54 PM 29.7233 -95.3728 144° Southeast 196 226 2,000 -537 Descending Houston Center
Mon 09:08:16 PM 29.7067 -95.3550 137° Southeast 152 175 1,700 -581 Descending Houston Center
Mon 09:08:56 PM 29.6958 -95.3397 129° Southeast 166 191 1,400 -689 Descending Houston Center
Mon 09:09:17 PM 29.6828 -95.3242 134° Southeast 127 146 1,000 -787 Descending Houston Center
Mon 09:09:57 PM 29.6664 -95.3042 133° Southeast 142 163 600 -655 Descending Houston Center
Mon 09:10:12 PM 29.6594 -95.2983 144° Southeast 125 144 400 -387 Descending Houston Center
Mon 09:10:59 PM 29.6447 -95.2789 131° Southeast 134 154 200 -255 Descending Houston Center
Mon 09:12:00 PM 29.6454 -95.2789 North  Level Estimated

Login

Don't have an account? Register now (free) for customized features, flight alerts, and more!